Time;durP1;ratioP1;P1;durP2;ratioP2;P2;SDS_P1;SDS_P2;PMS_P1;PMS_P2;Temp;Humidity;BMP_temperature;BMP_pressure;BME280_temperature;BME280_humidity;BME280_pressure;Samples;Min_cycle;Max_cycle;Signal;HPM_P1;HPM_P2
2022/03/01 00:01:36;;;;;;;25.42;11.57;;;;;;;;;;4992801;28;20045;-74
2022/03/01 00:04:02;;;;;;;21.40;10.88;;;;;;;;;;4993153;28;20443;-74
2022/03/01 00:06:29;;;;;;;20.70;10.27;;;;;;;;;;5009341;28;20045;-74
2022/03/01 00:08:55;;;;;;;20.73;10.63;;;;;;;;;;5026759;28;20478;-73
2022/03/01 00:11:21;;;;;;;19.52;10.63;;;;;;;;;;5009202;28;20037;-74
2022/03/01 00:13:48;;;;;;;22.75;11.10;;;;;;;;;;5008831;28;20065;-74
2022/03/01 00:16:14;;;;;;;20.58;10.63;;;;;;;;;;5029993;28;20048;-74
2022/03/01 00:18:40;;;;;;;17.67;10.18;;;;;;;;;;4995953;28;20064;-74
2022/03/01 00:21:06;;;;;;;21.90;11.52;;;;;;;;;;4996558;28;20045;-74
2022/03/01 00:23:32;;;;;;;21.33;11.65;;;;;;;;;;5012335;28;20528;-73
2022/03/01 00:25:59;;;;;;;19.13;10.73;;;;;;;;;;5012244;28;20061;-74
2022/03/01 00:28:25;;;;;;;20.35;10.45;;;;;;;;;;5012315;28;20494;-74
2022/03/01 00:30:51;;;;;;;21.70;11.02;;;;;;;;;;5030141;28;20125;-74
2022/03/01 00:33:17;;;;;;;19.88;10.35;;;;;;;;;;5012238;28;20064;-74
2022/03/01 00:35:43;;;;;;;21.38;11.23;;;;;;;;;;5011944;28;20082;-74
2022/03/01 00:38:09;;;;;;;20.98;10.98;;;;;;;;;;5011981;28;20041;-74
2022/03/01 00:40:35;;;;;;;22.08;11.18;;;;;;;;;;5029245;28;20046;-74
2022/03/01 00:43:01;;;;;;;22.55;11.10;;;;;;;;;;5029741;28;20110;-74
2022/03/01 00:45:27;;;;;;;21.50;11.43;;;;;;;;;;5012163;28;20505;-74
2022/03/01 00:47:53;;;;;;;20.75;10.88;;;;;;;;;;5011631;28;20040;-75
2022/03/01 00:50:19;;;;;;;20.80;10.88;;;;;;;;;;4995671;28;20102;-75
2022/03/01 00:52:46;;;;;;;20.63;10.48;;;;;;;;;;5011663;28;20421;-75
2022/03/01 00:55:12;;;;;;;25.58;11.70;;;;;;;;;;4995884;28;20053;-75
2022/03/01 00:57:38;;;;;;;22.17;10.77;;;;;;;;;;5011232;28;20131;-74
2022/03/01 01:00:05;;;;;;;22.05;11.18;;;;;;;;;;5029580;28;20046;-74
2022/03/01 01:02:32;;;;;;;20.20;11.43;;;;;;;;;;5011530;28;20052;-74
2022/03/01 01:04:58;;;;;;;22.20;11.13;;;;;;;;;;5011385;28;20038;-74
2022/03/01 01:07:25;;;;;;;21.88;11.20;;;;;;;;;;5029282;28;20053;-74
2022/03/01 01:09:51;;;;;;;20.52;10.88;;;;;;;;;;5011415;28;20057;-74
2022/03/01 01:12:17;;;;;;;20.88;11.15;;;;;;;;;;5011643;28;20049;-74
2022/03/01 01:14:44;;;;;;;20.77;10.70;;;;;;;;;;5011206;28;20057;-74
2022/03/01 01:17:10;;;;;;;21.63;11.13;;;;;;;;;;5029112;28;20046;-74
2022/03/01 01:19:36;;;;;;;21.55;11.23;;;;;;;;;;5011126;28;20033;-74
2022/03/01 01:24:47;;;;;;;21.17;10.50;;;;;;;;;;5010511;28;20128;-74
2022/03/01 01:27:13;;;;;;;21.30;11.30;;;;;;;;;;5011191;28;20559;-74
2022/03/01 01:29:39;;;;;;;21.67;11.02;;;;;;;;;;5011061;28;20494;-73
2022/03/01 01:32:06;;;;;;;19.83;10.63;;;;;;;;;;5011466;28;20042;-74
2022/03/01 01:34:32;;;;;;;21.98;11.18;;;;;;;;;;5010998;28;20139;-74
2022/03/01 01:36:58;;;;;;;18.75;10.60;;;;;;;;;;5011015;28;20048;-74
2022/03/01 01:39:24;;;;;;;20.70;10.95;;;;;;;;;;5010907;28;20041;-74
2022/03/01 01:41:50;;;;;;;20.17;10.45;;;;;;;;;;4994887;28;20037;-73
2022/03/01 01:44:16;;;;;;;22.65;11.75;;;;;;;;;;5011592;28;20041;-74
2022/03/01 01:46:42;;;;;;;20.85;10.80;;;;;;;;;;5028328;28;20049;-74
2022/03/01 01:49:08;;;;;;;22.92;11.35;;;;;;;;;;4995223;28;20052;-74
2022/03/01 01:51:35;;;;;;;21.58;10.88;;;;;;;;;;5010623;28;20053;-74
2022/03/01 01:54:01;;;;;;;20.58;10.55;;;;;;;;;;4994403;28;20041;-74
2022/03/01 01:56:27;;;;;;;20.95;11.20;;;;;;;;;;5011080;28;20474;-75
2022/03/01 01:58:53;;;;;;;21.60;10.82;;;;;;;;;;5010674;28;20060;-73
2022/03/01 02:01:19;;;;;;;21.30;10.43;;;;;;;;;;5011512;28;20045;-74
2022/03/01 02:03:45;;;;;;;19.30;10.55;;;;;;;;;;4994154;28;20048;-74
2022/03/01 02:06:12;;;;;;;20.67;11.20;;;;;;;;;;5028774;28;20093;-74
2022/03/01 02:08:38;;;;;;;21.60;11.43;;;;;;;;;;5010840;28;20096;-75
2022/03/01 02:11:04;;;;;;;20.63;10.82;;;;;;;;;;4994684;28;20049;-74
2022/03/01 02:13:30;;;;;;;20.77;11.13;;;;;;;;;;5010827;28;20046;-74
2022/03/01 02:15:56;;;;;;;20.70;10.52;;;;;;;;;;5028236;28;20064;-75
2022/03/01 02:18:22;;;;;;;21.98;11.13;;;;;;;;;;5010982;28;20561;-74
2022/03/01 02:20:49;;;;;;;21.75;11.10;;;;;;;;;;4994426;28;20037;-74
2022/03/01 02:23:15;;;;;;;22.05;11.35;;;;;;;;;;5011076;28;20122;-74
2022/03/01 02:25:41;;;;;;;21.25;11.07;;;;;;;;;;4994011;28;20412;-75
2022/03/01 02:28:07;;;;;;;23.38;11.55;;;;;;;;;;4994579;28;20054;-74
2022/03/01 02:30:33;;;;;;;21.45;11.05;;;;;;;;;;5028212;28;20504;-74
2022/03/01 02:33:00;;;;;;;22.63;11.50;;;;;;;;;;5028165;28;20033;-75
2022/03/01 02:35:26;;;;;;;21.30;11.27;;;;;;;;;;5028060;28;20041;-74
2022/03/01 02:37:52;;;;;;;20.77;10.98;;;;;;;;;;4993266;28;20045;-74
2022/03/01 02:40:20;;;;;;;22.98;11.52;;;;;;;;;;5028354;28;20544;-74
2022/03/01 02:42:46;;;;;;;19.63;11.20;;;;;;;;;;4994790;28;20473;-74
2022/03/01 02:45:14;;;;;;;24.60;11.30;;;;;;;;;;5011007;28;20444;-74
2022/03/01 02:47:41;;;;;;;22.52;11.80;;;;;;;;;;5009743;28;20058;-74
2022/03/01 02:50:08;;;;;;;24.35;11.15;;;;;;;;;;4993856;28;20088;-75
2022/03/01 02:52:34;;;;;;;21.75;11.07;;;;;;;;;;5009973;28;20061;-74
2022/03/01 02:55:00;;;;;;;21.40;11.88;;;;;;;;;;5009852;28;20050;-74
2022/03/01 02:57:27;;;;;;;21.67;11.40;;;;;;;;;;5009990;28;20037;-74
2022/03/01 02:59:53;;;;;;;22.33;11.93;;;;;;;;;;5009744;28;20394;-74
2022/03/01 03:02:19;;;;;;;22.48;12.23;;;;;;;;;;5005191;28;20128;-74
2022/03/01 03:04:45;;;;;;;22.27;10.90;;;;;;;;;;5026831;28;20081;-74
2022/03/01 03:07:12;;;;;;;22.25;11.85;;;;;;;;;;5009392;28;20049;-74
2022/03/01 03:09:38;;;;;;;22.63;12.15;;;;;;;;;;5009777;28;20524;-74
2022/03/01 03:12:05;;;;;;;21.65;11.57;;;;;;;;;;5010282;28;20050;-74
2022/03/01 03:14:32;;;;;;;21.15;10.85;;;;;;;;;;4993840;28;20042;-74
2022/03/01 03:16:58;;;;;;;22.90;11.38;;;;;;;;;;5009589;28;20081;-75
2022/03/01 03:19:24;;;;;;;21.40;11.52;;;;;;;;;;5009481;28;20034;-74
2022/03/01 03:21:50;;;;;;;23.33;11.27;;;;;;;;;;5009048;28;20041;-74
2022/03/01 03:24:17;;;;;;;22.15;11.75;;;;;;;;;;5009586;28;20045;-74
2022/03/01 03:26:43;;;;;;;22.73;11.93;;;;;;;;;;5026445;28;20097;-74
2022/03/01 03:29:10;;;;;;;23.25;12.50;;;;;;;;;;5010051;28;20063;-74
2022/03/01 03:31:40;;;;;;;22.65;12.20;;;;;;;;;;5009558;28;20041;-74
2022/03/01 03:34:07;;;;;;;24.27;12.63;;;;;;;;;;5009658;28;20073;-74
2022/03/01 03:36:34;;;;;;;22.17;12.60;;;;;;;;;;5009621;28;20121;-75
2022/03/01 03:39:01;;;;;;;22.67;11.68;;;;;;;;;;5009123;28;20041;-75
2022/03/01 03:41:27;;;;;;;21.42;11.57;;;;;;;;;;5009134;28;20049;-74
2022/03/01 03:43:53;;;;;;;21.63;12.00;;;;;;;;;;5009450;28;20597;-74
2022/03/01 03:46:20;;;;;;;24.23;12.32;;;;;;;;;;5009553;28;20041;-74
2022/03/01 03:48:47;;;;;;;23.95;11.55;;;;;;;;;;5010559;28;20041;-74
2022/03/01 03:51:13;;;;;;;24.88;12.45;;;;;;;;;;5013121;28;20362;-74
2022/03/01 03:53:39;;;;;;;23.27;11.88;;;;;;;;;;4996129;28;20053;-74
2022/03/01 03:56:05;;;;;;;26.63;12.75;;;;;;;;;;5012637;28;20078;-74
2022/03/01 03:58:31;;;;;;;21.92;11.48;;;;;;;;;;4980378;28;20044;-74
2022/03/01 04:00:58;;;;;;;23.88;12.65;;;;;;;;;;4983700;28;20069;-74
2022/03/01 04:03:24;;;;;;;21.50;11.85;;;;;;;;;;4993289;28;20056;-74
2022/03/01 04:05:51;;;;;;;25.80;12.55;;;;;;;;;;4976293;28;20465;-74
2022/03/01 04:08:17;;;;;;;22.92;12.88;;;;;;;;;;4993191;28;20120;-74
2022/03/01 04:10:44;;;;;;;23.65;11.98;;;;;;;;;;4976790;28;20042;-74
2022/03/01 04:13:10;;;;;;;24.02;11.90;;;;;;;;;;4992914;28;20095;-75
2022/03/01 04:15:36;;;;;;;23.83;12.05;;;;;;;;;;4976599;28;20042;-74
2022/03/01 04:18:03;;;;;;;23.75;11.85;;;;;;;;;;4992826;28;20459;-75
2022/03/01 04:20:29;;;;;;;20.50;10.73;;;;;;;;;;4976976;28;20081;-75
2022/03/01 04:22:56;;;;;;;26.33;12.45;;;;;;;;;;4992356;28;20436;-75
2022/03/01 04:25:22;;;;;;;22.65;12.27;;;;;;;;;;4992953;28;20042;-75
2022/03/01 04:27:48;;;;;;;23.67;12.32;;;;;;;;;;4977997;28;20054;-75
2022/03/01 04:30:15;;;;;;;23.20;11.52;;;;;;;;;;5009296;28;20042;-75
2022/03/01 04:32:42;;;;;;;23.67;12.13;;;;;;;;;;5008447;28;20046;-74
2022/03/01 04:35:09;;;;;;;21.25;11.52;;;;;;;;;;5009974;28;20081;-75
2022/03/01 04:37:39;;;;;;;26.35;11.75;;;;;;;;;;5008823;28;20042;-74
2022/03/01 04:40:06;;;;;;;22.08;11.98;;;;;;;;;;5010417;28;20106;-74
2022/03/01 04:42:32;;;;;;;20.85;11.40;;;;;;;;;;5009989;28;20053;-74
2022/03/01 04:44:59;;;;;;;23.00;12.07;;;;;;;;;;5008413;28;20042;-74
2022/03/01 04:47:25;;;;;;;22.42;11.82;;;;;;;;;;5009035;28;20053;-74
2022/03/01 04:49:51;;;;;;;20.25;11.35;;;;;;;;;;5008095;28;20042;-74
2022/03/01 04:52:17;;;;;;;21.30;11.50;;;;;;;;;;5008721;28;20042;-74
2022/03/01 04:54:43;;;;;;;22.85;12.23;;;;;;;;;;5008408;28;20400;-74
2022/03/01 04:57:10;;;;;;;23.08;11.35;;;;;;;;;;5009970;28;20517;-74
2022/03/01 04:59:36;;;;;;;21.55;11.02;;;;;;;;;;4975759;28;20077;-74
2022/03/01 05:02:02;;;;;;;22.48;12.27;;;;;;;;;;5005289;28;20045;-74
2022/03/01 05:04:28;;;;;;;22.30;11.43;;;;;;;;;;5011408;28;20040;-74
2022/03/01 05:06:55;;;;;;;24.77;12.45;;;;;;;;;;5008287;28;20050;-74
2022/03/01 05:09:21;;;;;;;20.80;11.88;;;;;;;;;;4993033;28;20398;-74
2022/03/01 05:11:51;;;;;;;22.35;11.40;;;;;;;;;;5008567;28;20444;-74
2022/03/01 05:14:18;;;;;;;22.13;11.20;;;;;;;;;;4991820;28;20042;-74
2022/03/01 05:16:45;;;;;;;21.88;11.52;;;;;;;;;;5008033;28;20486;-74
2022/03/01 05:19:11;;;;;;;22.38;12.18;;;;;;;;;;5009716;28;20292;-74
2022/03/01 05:21:37;;;;;;;25.50;12.43;;;;;;;;;;5008140;28;20045;-74
2022/03/01 05:24:04;;;;;;;24.95;12.27;;;;;;;;;;5009154;28;20045;-74
2022/03/01 05:26:30;;;;;;;25.55;12.45;;;;;;;;;;5007959;28;20062;-74
2022/03/01 05:28:57;;;;;;;22.10;11.70;;;;;;;;;;5011029;28;20122;-74
2022/03/01 05:31:23;;;;;;;24.60;11.73;;;;;;;;;;5011554;28;20056;-74
2022/03/01 05:33:50;;;;;;;25.20;12.75;;;;;;;;;;5011060;28;20092;-74
2022/03/01 05:36:16;;;;;;;23.58;12.93;;;;;;;;;;5011163;28;20041;-74
2022/03/01 05:38:43;;;;;;;24.17;12.90;;;;;;;;;;5010822;28;20044;-74
2022/03/01 05:41:10;;;;;;;23.20;12.07;;;;;;;;;;4995125;28;20045;-74
2022/03/01 05:43:36;;;;;;;23.02;12.25;;;;;;;;;;5029061;28;20041;-74
2022/03/01 05:46:03;;;;;;;22.17;11.70;;;;;;;;;;5028272;28;20066;-74
2022/03/01 05:48:29;;;;;;;27.30;12.63;;;;;;;;;;5011207;28;20053;-74
2022/03/01 05:50:55;;;;;;;24.00;12.18;;;;;;;;;;5010430;28;20052;-74
2022/03/01 05:53:21;;;;;;;28.80;13.77;;;;;;;;;;5028752;28;20049;-74
2022/03/01 05:55:48;;;;;;;23.33;12.30;;;;;;;;;;5010518;28;20041;-74
2022/03/01 05:58:14;;;;;;;22.80;12.88;;;;;;;;;;4994471;28;20046;-73
2022/03/01 06:00:40;;;;;;;24.05;11.90;;;;;;;;;;5010862;28;20053;-74
2022/03/01 06:03:06;;;;;;;23.35;11.50;;;;;;;;;;5010768;28;20457;-75
2022/03/01 06:05:32;;;;;;;23.23;12.88;;;;;;;;;;4994759;28;20505;-75
2022/03/01 06:07:58;;;;;;;27.15;12.70;;;;;;;;;;5010899;28;20481;-75
2022/03/01 06:10:28;;;;;;;25.50;12.48;;;;;;;;;;5010871;28;20128;-75
2022/03/01 06:12:54;;;;;;;25.23;13.13;;;;;;;;;;5010475;28;20398;-74
2022/03/01 06:15:21;;;;;;;25.00;13.32;;;;;;;;;;5010661;28;20235;-75
2022/03/01 06:17:47;;;;;;;25.80;13.23;;;;;;;;;;5027965;28;20144;-75
2022/03/01 06:20:14;;;;;;;27.27;12.23;;;;;;;;;;5028377;28;20033;-74
2022/03/01 06:22:41;;;;;;;25.40;13.52;;;;;;;;;;4994589;28;20253;-74
2022/03/01 06:25:07;;;;;;;23.95;12.68;;;;;;;;;;5010912;28;20049;-75
2022/03/01 06:27:37;;;;;;;23.60;12.63;;;;;;;;;;5027815;28;20058;-75
2022/03/01 06:30:07;;;;;;;25.48;13.30;;;;;;;;;;4993654;28;20494;-75
2022/03/01 06:32:33;;;;;;;25.27;13.65;;;;;;;;;;5010371;28;20089;-75
2022/03/01 06:35:00;;;;;;;23.55;13.05;;;;;;;;;;5028006;28;20044;-75
2022/03/01 06:37:26;;;;;;;22.13;12.48;;;;;;;;;;5010337;28;20379;-75
2022/03/01 06:39:53;;;;;;;25.15;13.65;;;;;;;;;;5009998;28;20073;-75
2022/03/01 06:42:19;;;;;;;24.38;13.43;;;;;;;;;;5010435;28;20084;-75
2022/03/01 06:44:46;;;;;;;24.73;13.43;;;;;;;;;;5009760;28;20052;-75
2022/03/01 06:47:12;;;;;;;30.73;14.15;;;;;;;;;;5009974;28;20049;-75
2022/03/01 06:49:38;;;;;;;26.17;13.02;;;;;;;;;;5027969;28;20494;-75
2022/03/01 06:52:04;;;;;;;24.17;12.68;;;;;;;;;;5009887;28;20129;-75
2022/03/01 06:54:30;;;;;;;23.88;12.40;;;;;;;;;;5027778;28;20049;-75
2022/03/01 06:56:57;;;;;;;24.45;12.85;;;;;;;;;;5009283;28;20049;-75
2022/03/01 06:59:24;;;;;;;23.92;12.43;;;;;;;;;;5010312;28;20046;-75
2022/03/01 07:01:51;;;;;;;23.70;13.05;;;;;;;;;;5027665;28;20041;-75
2022/03/01 07:04:17;;;;;;;24.88;13.18;;;;;;;;;;5010188;28;20439;-75
2022/03/01 07:06:43;;;;;;;25.30;13.18;;;;;;;;;;5027617;28;20042;-75
2022/03/01 07:09:09;;;;;;;23.55;13.20;;;;;;;;;;4993586;28;20053;-75
2022/03/01 07:11:35;;;;;;;26.90;14.10;;;;;;;;;;5027911;28;20069;-75
2022/03/01 07:14:02;;;;;;;26.15;12.95;;;;;;;;;;5009240;28;20049;-75
2022/03/01 07:16:28;;;;;;;24.58;12.57;;;;;;;;;;4992851;28;20046;-75
2022/03/01 07:18:54;;;;;;;24.48;13.13;;;;;;;;;;5009281;28;20037;-75
2022/03/01 07:21:21;;;;;;;29.45;12.75;;;;;;;;;;5027429;28;20048;-75
2022/03/01 07:23:47;;;;;;;25.27;13.60;;;;;;;;;;5026616;28;20056;-74
2022/03/01 07:26:13;;;;;;;27.73;13.32;;;;;;;;;;5009459;28;20096;-75
2022/03/01 07:28:39;;;;;;;26.00;13.43;;;;;;;;;;5009541;28;20089;-75
2022/03/01 07:31:05;;;;;;;21.83;13.02;;;;;;;;;;5026711;28;20038;-75
2022/03/01 07:33:31;;;;;;;25.10;13.50;;;;;;;;;;5009463;28;20046;-75
2022/03/01 07:35:58;;;;;;;23.05;12.85;;;;;;;;;;5009273;28;20097;-75
2022/03/01 07:38:24;;;;;;;24.83;13.55;;;;;;;;;;5009372;28;20044;-75
2022/03/01 07:40:50;;;;;;;27.77;13.43;;;;;;;;;;5009071;28;20053;-75
2022/03/01 07:43:16;;;;;;;25.45;14.45;;;;;;;;;;5009315;28;20034;-74
2022/03/01 07:45:42;;;;;;;24.67;13.20;;;;;;;;;;4993008;28;20486;-74
2022/03/01 07:48:10;;;;;;;24.52;13.15;;;;;;;;;;5026648;28;20542;-74
2022/03/01 07:50:36;;;;;;;24.42;12.07;;;;;;;;;;5027265;28;20092;-75
2022/03/01 07:53:03;;;;;;;23.60;12.80;;;;;;;;;;5009208;28;20080;-74
2022/03/01 07:55:29;;;;;;;25.70;13.55;;;;;;;;;;5009187;28;20057;-75
2022/03/01 07:57:55;;;;;;;23.17;13.23;;;;;;;;;;5009109;28;20098;-75
2022/03/01 08:00:23;;;;;;;23.92;13.43;;;;;;;;;;5009030;28;20042;-75
2022/03/01 08:02:52;;;;;;;22.23;12.50;;;;;;;;;;5026491;28;20045;-75
2022/03/01 08:05:18;;;;;;;23.80;13.05;;;;;;;;;;5009126;28;20097;-75
2022/03/01 08:07:44;;;;;;;24.00;12.80;;;;;;;;;;5009245;28;20121;-75
2022/03/01 08:10:10;;;;;;;22.98;12.98;;;;;;;;;;4977489;28;20163;-75
2022/03/01 08:12:36;;;;;;;24.25;13.82;;;;;;;;;;5010286;28;20196;-74
2022/03/01 08:15:03;;;;;;;23.25;12.45;;;;;;;;;;5009868;28;20401;-75
2022/03/01 08:17:30;;;;;;;23.50;12.82;;;;;;;;;;5009928;28;20530;-75
2022/03/01 08:19:56;;;;;;;22.73;12.18;;;;;;;;;;5009322;28;20133;-74
2022/03/01 08:22:22;;;;;;;24.63;13.38;;;;;;;;;;5009231;28;20124;-74
2022/03/01 08:24:50;;;;;;;24.70;13.68;;;;;;;;;;4993193;28;20091;-74
2022/03/01 08:27:16;;;;;;;25.75;13.98;;;;;;;;;;5008717;28;20398;-75
2022/03/01 08:29:42;;;;;;;28.63;13.57;;;;;;;;;;5009457;28;20128;-74
2022/03/01 08:32:08;;;;;;;25.50;13.32;;;;;;;;;;5008897;28;20049;-75
2022/03/01 08:34:34;;;;;;;25.90;13.20;;;;;;;;;;5008884;28;20071;-74
2022/03/01 08:37:00;;;;;;;25.08;13.88;;;;;;;;;;5011591;28;20053;-74
2022/03/01 08:39:27;;;;;;;25.02;13.73;;;;;;;;;;5012449;28;20435;-74
2022/03/01 08:41:55;;;;;;;26.05;13.15;;;;;;;;;;5012023;28;20046;-74
2022/03/01 08:44:21;;;;;;;26.02;13.65;;;;;;;;;;5030547;28;20060;-74
2022/03/01 08:46:47;;;;;;;23.30;13.35;;;;;;;;;;4995665;28;20045;-74
2022/03/01 08:49:13;;;;;;;26.25;13.48;;;;;;;;;;5012209;28;20050;-74
2022/03/01 08:51:39;;;;;;;24.88;14.02;;;;;;;;;;5012472;28;20494;-74
2022/03/01 08:54:05;;;;;;;24.52;14.20;;;;;;;;;;4995898;28;20041;-74
2022/03/01 08:56:31;;;;;;;25.58;14.15;;;;;;;;;;5012013;28;20546;-74
2022/03/01 08:58:57;;;;;;;28.00;15.25;;;;;;;;;;5029334;28;20167;-75
2022/03/01 09:01:23;;;;;;;27.38;14.70;;;;;;;;;;5029674;28;20090;-75
2022/03/01 09:03:49;;;;;;;26.77;14.80;;;;;;;;;;5029523;28;20042;-75
2022/03/01 09:06:15;;;;;;;25.75;14.77;;;;;;;;;;5011694;28;20128;-75
2022/03/01 09:08:42;;;;;;;24.98;13.90;;;;;;;;;;4995721;28;20410;-75
2022/03/01 09:11:08;;;;;;;27.85;14.43;;;;;;;;;;5029647;28;20048;-75
2022/03/01 09:13:35;;;;;;;25.85;13.73;;;;;;;;;;5029476;28;20416;-75
2022/03/01 09:16:01;;;;;;;24.40;14.18;;;;;;;;;;5011430;28;20041;-75
2022/03/01 09:18:27;;;;;;;26.02;14.45;;;;;;;;;;5011122;28;20041;-75
2022/03/01 09:20:53;;;;;;;24.95;13.70;;;;;;;;;;5011582;28;20583;-74
2022/03/01 09:23:19;;;;;;;25.40;15.35;;;;;;;;;;5011119;28;20114;-74
2022/03/01 09:25:45;;;;;;;25.35;14.93;;;;;;;;;;5028998;28;20038;-74
2022/03/01 09:28:11;;;;;;;27.08;14.90;;;;;;;;;;5007989;28;20054;-74
2022/03/01 09:30:38;;;;;;;24.17;14.60;;;;;;;;;;4992024;28;20091;-73
2022/03/01 09:33:05;;;;;;;27.95;15.43;;;;;;;;;;5007977;28;20042;-75
2022/03/01 09:35:31;;;;;;;27.00;14.35;;;;;;;;;;5008190;28;20046;-74
2022/03/01 09:37:57;;;;;;;25.13;14.38;;;;;;;;;;5007610;28;20046;-75
2022/03/01 09:40:23;;;;;;;25.08;14.77;;;;;;;;;;5007630;28;20087;-75
2022/03/01 09:42:51;;;;;;;25.35;15.18;;;;;;;;;;5007783;28;20045;-74
2022/03/01 09:45:17;;;;;;;28.80;15.95;;;;;;;;;;5007701;28;20478;-75
2022/03/01 09:47:43;;;;;;;27.67;15.00;;;;;;;;;;5008661;28;20053;-75
2022/03/01 09:50:10;;;;;;;26.17;15.18;;;;;;;;;;4975343;28;20046;-75
2022/03/01 09:52:37;;;;;;;28.50;15.63;;;;;;;;;;5007729;28;20042;-74
2022/03/01 09:55:03;;;;;;;24.70;14.85;;;;;;;;;;5007408;28;20129;-74
2022/03/01 09:57:30;;;;;;;25.35;14.70;;;;;;;;;;5007397;28;20405;-74
2022/03/01 09:59:56;;;;;;;24.73;14.90;;;;;;;;;;5008890;28;20483;-74
2022/03/01 10:02:32;;;;;;;22.73;14.02;;;;;;;;;;5007889;28;20042;-74
2022/03/01 10:04:58;;;;;;;26.50;15.48;;;;;;;;;;5007793;28;20046;-73
2022/03/01 10:07:25;;;;;;;26.75;15.10;;;;;;;;;;5007603;28;20065;-74
2022/03/01 10:09:52;;;;;;;24.63;15.13;;;;;;;;;;5007350;28;20045;-74
2022/03/01 10:12:25;;;;;;;26.42;15.25;;;;;;;;;;5006933;28;20053;-74
2022/03/01 10:15:03;;;;;;;28.80;15.48;;;;;;;;;;5007657;28;20428;-75
2022/03/01 10:17:39;;;;;;;28.35;15.20;;;;;;;;;;4991131;28;20056;-75
2022/03/01 10:20:12;;;;;;;28.13;15.77;;;;;;;;;;5008269;28;20034;-75
2022/03/01 10:22:45;;;;;;;28.63;16.15;;;;;;;;;;5007068;28;20050;-75
2022/03/01 10:25:12;;;;;;;30.83;16.15;;;;;;;;;;5007519;28;20120;-74
2022/03/01 10:27:38;;;;;;;29.80;15.85;;;;;;;;;;5006852;28;20058;-75
2022/03/01 10:30:05;;;;;;;29.17;16.70;;;;;;;;;;5007147;28;20057;-75
2022/03/01 10:32:32;;;;;;;28.70;15.77;;;;;;;;;;5006974;28;20050;-74
2022/03/01 10:35:06;;;;;;;29.17;15.45;;;;;;;;;;5008400;28;20120;-74
2022/03/01 10:37:39;;;;;;;27.63;14.98;;;;;;;;;;5006639;28;20049;-74
2022/03/01 10:40:24;;;;;;;24.70;14.80;;;;;;;;;;4990963;28;20042;-74
2022/03/01 10:43:02;;;;;;;24.42;13.85;;;;;;;;;;5008304;28;20106;-74
2022/03/01 10:45:36;;;;;;;26.00;14.05;;;;;;;;;;5007238;28;20087;-75
2022/03/01 10:48:03;;;;;;;24.02;13.88;;;;;;;;;;5007839;28;20094;-75
2022/03/01 10:50:29;;;;;;;24.20;13.98;;;;;;;;;;5007946;28;20046;-74
2022/03/01 10:52:55;;;;;;;28.73;14.50;;;;;;;;;;5007486;28;20034;-75
2022/03/01 10:55:26;;;;;;;27.92;16.05;;;;;;;;;;5007213;28;20111;-74
2022/03/01 10:57:59;;;;;;;26.58;14.90;;;;;;;;;;5007176;28;20046;-74
2022/03/01 11:00:25;;;;;;;28.73;15.07;;;;;;;;;;5006630;28;20044;-73
2022/03/01 11:02:51;;;;;;;26.05;15.05;;;;;;;;;;5007826;28;20038;-75
2022/03/01 11:05:17;;;;;;;25.77;14.10;;;;;;;;;;5008603;28;20514;-75
2022/03/01 11:07:44;;;;;;;23.48;14.05;;;;;;;;;;5007171;28;20038;-75
2022/03/01 11:10:12;;;;;;;25.13;14.57;;;;;;;;;;5006768;28;20050;-75
2022/03/01 11:12:39;;;;;;;28.65;15.07;;;;;;;;;;5006568;28;20045;-74
2022/03/01 11:15:08;;;;;;;23.77;14.18;;;;;;;;;;5007719;28;20049;-74
2022/03/01 11:17:34;;;;;;;25.08;14.43;;;;;;;;;;5007034;28;20049;-75
2022/03/01 11:20:07;;;;;;;23.63;13.57;;;;;;;;;;5006597;28;20042;-74
2022/03/01 11:22:54;;;;;;;28.52;15.07;;;;;;;;;;5006580;28;20558;-74
2022/03/01 11:25:22;;;;;;;28.08;14.20;;;;;;;;;;4989968;28;20053;-74
2022/03/01 11:27:59;;;;;;;26.27;15.13;;;;;;;;;;5007395;28;20494;-73
2022/03/01 11:30:27;;;;;;;26.17;14.95;;;;;;;;;;5006865;28;20115;-74
2022/03/01 11:32:55;;;;;;;29.83;15.45;;;;;;;;;;5006828;28;20042;-74
2022/03/01 11:35:23;;;;;;;29.75;15.40;;;;;;;;;;5006676;28;20098;-74
2022/03/01 11:38:05;;;;;;;27.63;15.52;;;;;;;;;;5007409;28;20042;-73
2022/03/01 11:40:34;;;;;;;29.55;15.55;;;;;;;;;;5006343;28;20046;-73
2022/03/01 11:43:11;;;;;;;27.52;15.93;;;;;;;;;;4989993;28;20042;-74
2022/03/01 11:45:37;;;;;;;30.85;16.52;;;;;;;;;;5007769;28;20117;-74
2022/03/01 11:48:13;;;;;;;30.25;15.52;;;;;;;;;;5007299;28;20081;-74
2022/03/01 11:50:47;;;;;;;28.73;15.38;;;;;;;;;;5006511;28;20472;-74
2022/03/01 11:53:15;;;;;;;26.05;15.88;;;;;;;;;;5006112;28;20041;-74
2022/03/01 11:55:45;;;;;;;25.42;15.10;;;;;;;;;;4989461;28;20144;-74
2022/03/01 11:58:11;;;;;;;26.23;15.70;;;;;;;;;;5006187;28;20168;-74
2022/03/01 12:00:39;;;;;;;23.77;14.15;;;;;;;;;;5005863;28;20078;-74
2022/03/01 12:03:07;;;;;;;24.60;14.80;;;;;;;;;;5005598;28;20050;-74
2022/03/01 12:05:36;;;;;;;25.42;14.88;;;;;;;;;;5007413;28;20034;-74
2022/03/01 12:08:05;;;;;;;25.80;15.45;;;;;;;;;;5006824;28;20098;-74
2022/03/01 12:10:31;;;;;;;24.67;14.80;;;;;;;;;;5008644;28;20490;-75
2022/03/01 12:12:57;;;;;;;27.77;16.58;;;;;;;;;;5009018;28;20038;-75
2022/03/01 12:15:30;;;;;;;28.20;15.52;;;;;;;;;;5009458;28;20041;-74
2022/03/01 12:17:58;;;;;;;25.67;15.05;;;;;;;;;;4992656;28;20077;-74
2022/03/01 12:20:25;;;;;;;27.67;16.27;;;;;;;;;;4993153;28;20038;-74
2022/03/01 12:22:55;;;;;;;25.98;15.32;;;;;;;;;;5009100;28;20465;-74
2022/03/01 12:25:22;;;;;;;25.83;15.82;;;;;;;;;;5011095;28;20038;-74
2022/03/01 12:27:49;;;;;;;28.02;16.08;;;;;;;;;;5026563;28;20060;-74
2022/03/01 12:30:18;;;;;;;28.20;15.30;;;;;;;;;;5029803;28;20512;-75
2022/03/01 12:32:49;;;;;;;25.80;15.60;;;;;;;;;;5012794;28;20402;-74
2022/03/01 12:35:15;;;;;;;28.02;15.70;;;;;;;;;;5012677;28;20042;-74
2022/03/01 12:37:41;;;;;;;26.17;15.82;;;;;;;;;;5029752;28;20184;-74
2022/03/01 12:40:08;;;;;;;26.55;16.05;;;;;;;;;;5011933;28;20498;-74
2022/03/01 12:42:36;;;;;;;28.63;16.75;;;;;;;;;;4995957;28;20061;-74
2022/03/01 12:45:02;;;;;;;30.35;16.98;;;;;;;;;;5029952;28;20042;-74
2022/03/01 12:47:29;;;;;;;30.65;16.70;;;;;;;;;;5030250;28;20486;-74
2022/03/01 12:49:55;;;;;;;27.90;15.95;;;;;;;;;;5012033;28;20401;-74
2022/03/01 12:52:23;;;;;;;30.80;16.80;;;;;;;;;;5012141;28;20049;-75
2022/03/01 12:54:49;;;;;;;30.25;17.13;;;;;;;;;;5029672;28;20041;-74
2022/03/01 12:57:16;;;;;;;27.17;15.68;;;;;;;;;;5011812;28;20526;-73
2022/03/01 12:59:44;;;;;;;32.67;16.95;;;;;;;;;;5029599;28;20045;-74
2022/03/01 13:02:10;;;;;;;30.70;16.85;;;;;;;;;;5012026;28;20053;-74
2022/03/01 13:04:37;;;;;;;32.38;16.73;;;;;;;;;;5012083;28;20416;-75
2022/03/01 13:07:03;;;;;;;32.35;17.58;;;;;;;;;;5011822;28;20042;-75
2022/03/01 13:09:30;;;;;;;30.30;16.23;;;;;;;;;;5011980;28;20050;-74
2022/03/01 13:11:56;;;;;;;31.42;16.70;;;;;;;;;;4996012;28;20376;-74
2022/03/01 13:14:24;;;;;;;27.52;16.52;;;;;;;;;;5012496;28;20054;-75
2022/03/01 13:16:51;;;;;;;28.00;16.35;;;;;;;;;;5012200;28;20049;-75
2022/03/01 13:19:25;;;;;;;26.08;15.38;;;;;;;;;;5012088;28;20046;-75
2022/03/01 13:21:52;;;;;;;26.35;16.02;;;;;;;;;;5010529;28;20126;-75
2022/03/01 13:24:23;;;;;;;25.73;15.63;;;;;;;;;;5011643;28;20128;-75
2022/03/01 13:26:50;;;;;;;28.95;15.95;;;;;;;;;;5011890;28;20054;-75
2022/03/01 13:29:17;;;;;;;29.75;16.35;;;;;;;;;;4995349;28;20513;-74
2022/03/01 13:31:43;;;;;;;29.30;15.95;;;;;;;;;;5029441;28;20482;-73
2022/03/01 13:34:10;;;;;;;27.95;16.65;;;;;;;;;;5029596;28;20048;-74
2022/03/01 13:36:38;;;;;;;30.05;16.48;;;;;;;;;;4995305;28;20082;-74
2022/03/01 13:39:10;;;;;;;27.60;15.93;;;;;;;;;;5010786;28;20120;-75
2022/03/01 13:41:37;;;;;;;26.15;15.23;;;;;;;;;;5011615;28;20094;-74
2022/03/01 13:44:11;;;;;;;28.63;15.23;;;;;;;;;;5028717;28;20048;-74
2022/03/01 13:46:37;;;;;;;25.30;15.50;;;;;;;;;;5029094;28;20142;-75
2022/03/01 13:49:06;;;;;;;27.67;16.63;;;;;;;;;;5011035;28;20085;-74
2022/03/01 13:51:33;;;;;;;27.13;16.30;;;;;;;;;;5028869;28;20048;-74
2022/03/01 13:54:09;;;;;;;24.50;14.77;;;;;;;;;;5011063;28;20436;-73
2022/03/01 13:56:35;;;;;;;;;;;;;;;;;;4994981;28;20381;-74
2022/03/01 13:59:03;;;;;;;27.20;15.23;;;;;;;;;;5028573;28;19991;-74
2022/03/01 14:01:30;;;;;;;30.23;16.05;;;;;;;;;;5011839;28;20490;-73
2022/03/01 14:04:05;;;;;;;28.80;16.73;;;;;;;;;;4994853;28;20068;-73
2022/03/01 14:06:32;;;;;;;27.73;16.10;;;;;;;;;;5029111;28;20045;-73
2022/03/01 14:08:59;;;;;;;27.83;15.52;;;;;;;;;;5029643;28;20056;-74
2022/03/01 14:11:25;;;;;;;28.10;15.35;;;;;;;;;;5030079;28;20208;-75
2022/03/01 14:13:52;;;;;;;25.90;15.95;;;;;;;;;;5029102;28;20064;-75
2022/03/01 14:16:19;;;;;;;27.70;15.60;;;;;;;;;;5032545;28;20394;-71
2022/03/01 14:18:45;;;;;;;26.13;15.45;;;;;;;;;;5015424;28;20069;-73
2022/03/01 14:21:13;;;;;;;25.38;15.45;;;;;;;;;;5015668;28;20106;-71